createdAt,value
2019-05-21T00:02:03.698Z,44.80
2019-05-21T00:04:33.976Z,41.10
2019-05-21T00:07:04.280Z,39.55
2019-05-21T00:09:34.547Z,39.58
2019-05-21T00:12:04.942Z,38.78
2019-05-21T00:14:35.210Z,34.45
2019-05-21T00:17:05.492Z,30.32
2019-05-21T00:19:35.769Z,25.20
2019-05-21T00:22:06.070Z,24.67
2019-05-21T00:24:36.376Z,24.35
2019-05-21T00:27:06.661Z,21.73
2019-05-21T00:30:31.540Z,19.62
2019-05-21T00:33:56.891Z,15.97
2019-05-21T00:37:22.583Z,17.45
2019-05-21T00:40:47.291Z,15.10
2019-05-21T00:43:20.822Z,13.18
2019-05-21T00:45:51.113Z,14.30
2019-05-21T00:48:21.403Z,15.00
2019-05-21T00:50:51.716Z,13.22
2019-05-21T00:53:21.999Z,13.88
2019-05-21T00:55:52.294Z,13.17
2019-05-21T00:58:22.604Z,12.15
2019-05-21T01:00:52.861Z,11.62
2019-05-21T01:03:23.155Z,11.73
2019-05-21T01:05:53.728Z,11.40
2019-05-21T01:08:24.786Z,10.20
2019-05-21T01:10:55.333Z,10.38
2019-05-21T01:13:25.619Z,10.60
2019-05-21T01:15:55.912Z,10.68
2019-05-21T01:18:26.204Z,10.72
2019-05-21T01:20:56.883Z,11.20
2019-05-21T01:23:27.172Z,9.90
2019-05-21T01:25:57.739Z,10.20
2019-05-21T01:28:28.016Z,9.63
2019-05-21T01:30:58.593Z,10.50
2019-05-21T01:33:28.875Z,10.73
2019-05-21T01:35:59.164Z,10.13
2019-05-21T01:38:29.770Z,10.53
2019-05-21T01:41:00.051Z,9.93
2019-05-21T01:43:30.338Z,10.20
2019-05-21T01:46:01.152Z,10.93
2019-05-21T01:48:31.690Z,10.63
2019-05-21T01:51:01.966Z,9.78
2019-05-21T01:53:32.253Z,9.45
2019-05-21T01:56:02.542Z,11.33
2019-05-21T01:58:32.825Z,11.48
2019-05-21T02:01:03.539Z,11.18
2019-05-21T02:03:33.796Z,11.38
2019-05-21T02:06:04.366Z,11.63
2019-05-21T02:08:34.655Z,10.38
2019-05-21T02:11:05.076Z,10.60
2019-05-21T02:13:35.362Z,10.90
2019-05-21T02:16:06.077Z,10.88
2019-05-21T02:18:36.355Z,10.68
2019-05-21T02:21:06.647Z,10.00
2019-05-21T02:23:36.943Z,10.63
2019-05-21T02:26:07.230Z,9.62
2019-05-21T02:28:37.601Z,9.73
2019-05-21T02:31:07.871Z,9.88
2019-05-21T02:33:38.860Z,9.55
2019-05-21T02:36:09.142Z,9.08
2019-05-21T02:38:39.421Z,9.60
2019-05-21T02:41:09.702Z,9.25
2019-05-21T02:43:39.976Z,8.67
2019-05-21T02:46:10.269Z,10.15
2019-05-21T02:48:40.794Z,9.30
2019-05-21T02:51:11.076Z,8.90
2019-05-21T02:53:41.361Z,7.83
2019-05-21T02:56:11.645Z,8.37
2019-05-21T02:58:41.933Z,7.72
2019-05-21T03:01:22.852Z,7.00
2019-05-21T03:03:53.224Z,7.30
2019-05-21T03:06:23.479Z,7.60
2019-05-21T03:08:53.854Z,7.30
2019-05-21T03:11:24.181Z,7.47
2019-05-21T03:13:54.440Z,7.53
2019-05-21T03:16:24.720Z,6.72
2019-05-21T03:18:55.024Z,6.17
2019-05-21T03:21:25.310Z,4.87
2019-05-21T03:23:55.582Z,5.10
2019-05-21T03:26:25.858Z,4.80
2019-05-21T03:28:57.275Z,4.40
2019-05-21T03:31:27.701Z,4.10
2019-05-21T03:33:58.252Z,3.67
2019-05-21T03:36:33.576Z,3.77
2019-05-21T03:39:00.899Z,3.37
2019-05-21T03:41:31.181Z,2.47
2019-05-21T03:44:01.874Z,2.52
2019-05-21T03:46:32.228Z,3.10
2019-05-21T03:49:02.500Z,2.42
2019-05-21T03:51:32.855Z,2.90
2019-05-21T03:54:03.134Z,2.77
2019-05-21T03:56:33.421Z,2.43
2019-05-21T03:59:04.097Z,2.65
2019-05-21T04:01:34.376Z,2.58
2019-05-21T04:04:04.723Z,2.67
2019-05-21T04:06:50.672Z,3.04
2019-05-21T04:09:08.901Z,3.58
2019-05-21T04:11:39.176Z,2.94
2019-05-21T04:14:09.629Z,3.22
2019-05-21T04:16:53.690Z,2.50
2019-05-21T04:19:26.365Z,3.05
2019-05-21T04:21:56.745Z,2.65
2019-05-21T04:24:27.021Z,2.42
2019-05-21T04:26:57.304Z,2.45
2019-05-21T04:29:27.588Z,2.33
2019-05-21T04:31:57.849Z,2.12
2019-05-21T04:34:28.130Z,2.26
2019-05-21T04:37:10.086Z,2.05
2019-05-21T04:39:30.489Z,1.87
2019-05-21T04:42:00.963Z,2.30
2019-05-21T04:44:31.243Z,1.92
2019-05-21T04:47:01.578Z,2.47
2019-05-21T04:49:31.877Z,2.35
2019-05-21T04:52:02.162Z,2.08
2019-05-21T04:54:32.435Z,2.27
2019-05-21T04:57:02.711Z,2.58
2019-05-21T04:59:33.014Z,2.30
2019-05-21T05:02:03.274Z,2.15
2019-05-21T05:04:33.544Z,1.87
2019-05-21T05:07:04.098Z,2.45
2019-05-21T05:09:34.432Z,2.00
2019-05-21T05:12:04.699Z,2.00
2019-05-21T05:14:34.976Z,2.20
2019-05-21T05:17:05.253Z,2.00
2019-05-21T05:19:35.738Z,2.00
2019-05-21T05:22:06.489Z,2.37
2019-05-21T05:24:37.316Z,1.75
2019-05-21T05:27:07.663Z,2.20
2019-05-21T05:29:37.944Z,2.10
2019-05-21T05:32:08.253Z,1.90
2019-05-21T05:34:38.526Z,1.60
2019-05-21T05:37:09.114Z,1.80
2019-05-21T05:39:39.383Z,1.80
2019-05-21T05:42:09.662Z,1.77
2019-05-21T05:44:39.941Z,1.80
2019-05-21T05:47:10.218Z,1.70
2019-05-21T05:49:45.084Z,2.02
2019-05-21T05:52:15.379Z,1.87
2019-05-21T05:54:45.652Z,2.40
2019-05-21T05:57:15.944Z,1.80
2019-05-21T05:59:46.529Z,2.20
2019-05-21T06:02:17.056Z,3.13
2019-05-21T06:04:47.351Z,2.80
2019-05-21T06:07:17.631Z,3.65
2019-05-21T06:09:48.039Z,3.33
2019-05-21T06:12:18.309Z,3.52
2019-05-21T06:14:48.593Z,4.12
2019-05-21T06:17:18.866Z,3.62
2019-05-21T06:19:49.164Z,4.17
2019-05-21T06:22:19.438Z,4.03
2019-05-21T06:24:49.726Z,3.20
2019-05-21T06:27:20.037Z,3.47
2019-05-21T06:29:50.312Z,3.40
2019-05-21T06:32:20.602Z,3.20
2019-05-21T06:34:50.865Z,2.83
2019-05-21T06:37:21.146Z,3.58
2019-05-21T06:39:51.421Z,2.67
2019-05-21T06:42:21.701Z,2.60
2019-05-21T06:44:51.978Z,2.40
2019-05-21T06:47:22.257Z,3.25
2019-05-21T06:49:53.159Z,2.87
2019-05-21T06:52:23.865Z,2.77
2019-05-21T06:54:54.146Z,2.58
2019-05-21T06:57:24.427Z,3.02
2019-05-21T06:59:54.708Z,3.00
2019-05-21T07:02:25.019Z,2.77
2019-05-21T07:04:55.318Z,3.80
2019-05-21T07:07:25.579Z,4.28
2019-05-21T07:09:55.847Z,4.58
2019-05-21T07:12:26.452Z,5.05
2019-05-21T07:14:56.749Z,4.85
2019-05-21T07:17:27.020Z,4.77
2019-05-21T07:19:57.392Z,3.40
2019-05-21T07:22:27.685Z,2.60
2019-05-21T07:24:58.293Z,2.96
2019-05-21T07:27:28.559Z,2.42
2019-05-21T07:29:58.840Z,2.45
2019-05-21T07:32:30.250Z,2.62
2019-05-21T07:35:00.534Z,2.33
2019-05-21T07:37:30.799Z,2.30
2019-05-21T07:40:01.091Z,2.20
2019-05-21T07:42:31.436Z,2.53
2019-05-21T07:45:01.866Z,2.27
2019-05-21T07:47:32.357Z,2.47
2019-05-21T07:50:02.708Z,2.00
2019-05-21T07:52:33.292Z,2.40
2019-05-21T07:55:03.763Z,2.10
2019-05-21T07:57:34.041Z,1.77
2019-05-21T08:00:06.171Z,1.77
2019-05-21T08:02:36.452Z,1.40
2019-05-21T08:05:07.202Z,1.30
2019-05-21T08:07:37.562Z,1.25
2019-05-21T08:10:09.285Z,1.30
2019-05-21T08:12:40.061Z,1.10
2019-05-21T08:15:11.636Z,1.27
2019-05-21T08:17:41.909Z,1.20
2019-05-21T08:20:13.620Z,1.05
2019-05-21T08:22:43.881Z,1.17
2019-05-21T08:25:15.201Z,1.40
2019-05-21T08:27:45.557Z,1.30
2019-05-21T08:30:16.069Z,1.10
2019-05-21T08:32:46.337Z,1.00
2019-05-21T08:35:17.095Z,1.00
2019-05-21T08:37:47.376Z,1.10
2019-05-21T08:40:20.065Z,1.10
2019-05-21T08:42:50.336Z,1.52
2019-05-21T08:45:21.467Z,1.50
2019-05-21T08:47:51.745Z,1.40
2019-05-21T08:50:22.098Z,1.40
2019-05-21T08:52:52.386Z,1.40
2019-05-21T08:55:22.657Z,1.30
2019-05-21T08:58:06.596Z,1.20
2019-05-21T09:00:25.522Z,1.07
2019-05-21T09:02:55.867Z,1.10
2019-05-21T09:05:26.145Z,1.55
2019-05-21T09:07:56.553Z,1.50
2019-05-21T09:10:26.837Z,1.70
2019-05-21T09:12:57.644Z,1.30
2019-05-21T09:15:27.928Z,1.77
2019-05-21T09:17:58.210Z,1.80
2019-05-21T09:20:28.779Z,2.47
2019-05-21T09:22:59.050Z,1.98
2019-05-21T09:25:29.331Z,2.37
2019-05-21T09:28:00.155Z,2.20
2019-05-21T09:30:30.427Z,2.40
2019-05-21T09:33:00.744Z,2.70
2019-05-21T09:35:31.073Z,2.40
2019-05-21T09:38:01.354Z,3.30
2019-05-21T09:40:33.266Z,3.00
2019-05-21T09:43:03.581Z,3.00
2019-05-21T09:45:33.854Z,3.30
2019-05-21T09:48:04.255Z,3.25
2019-05-21T09:50:34.563Z,3.50
2019-05-21T09:53:04.974Z,3.62
2019-05-21T09:55:35.268Z,3.15
2019-05-21T09:58:14.036Z,3.40
2019-05-21T10:01:02.137Z,3.23
2019-05-21T10:03:46.344Z,3.25
2019-05-21T10:06:16.821Z,3.30
2019-05-21T10:08:47.162Z,3.60
2019-05-21T10:11:18.006Z,3.35
2019-05-21T10:13:48.293Z,3.30
2019-05-21T10:16:18.574Z,3.27
2019-05-21T10:18:48.949Z,3.83
2019-05-21T10:21:19.253Z,3.72
2019-05-21T10:23:49.796Z,3.87
2019-05-21T10:26:20.425Z,3.77
2019-05-21T10:28:50.698Z,3.17
2019-05-21T10:31:20.986Z,3.65
2019-05-21T10:33:51.265Z,4.00
2019-05-21T10:36:21.592Z,3.25
2019-05-21T10:38:51.868Z,3.80
2019-05-21T10:41:22.387Z,4.17
2019-05-21T10:43:52.747Z,3.72
2019-05-21T10:46:23.031Z,3.52
2019-05-21T10:48:53.322Z,4.10
2019-05-21T10:51:23.599Z,3.40
2019-05-21T10:53:55.006Z,2.65
2019-05-21T10:56:25.328Z,2.95
2019-05-21T10:58:55.606Z,2.90
2019-05-21T11:01:46.019Z,2.30
2019-05-21T11:04:20.799Z,2.62
2019-05-21T11:06:51.298Z,2.27
2019-05-21T11:09:23.167Z,1.92
2019-05-21T11:11:53.510Z,2.20
2019-05-21T11:14:23.853Z,2.27
2019-05-21T11:16:54.141Z,2.58
2019-05-21T11:19:24.488Z,2.37
2019-05-21T11:21:54.829Z,2.80
2019-05-21T11:24:25.102Z,2.72
2019-05-21T11:26:55.396Z,2.55
2019-05-21T11:29:25.915Z,3.40
2019-05-21T11:31:57.664Z,2.98
2019-05-21T11:34:28.157Z,3.90
2019-05-21T11:36:58.705Z,3.98
2019-05-21T11:39:28.993Z,4.60
2019-05-21T11:41:59.265Z,4.28
2019-05-21T11:44:29.561Z,4.40
2019-05-21T11:46:59.911Z,3.67
2019-05-21T11:49:30.196Z,4.67
2019-05-21T11:52:00.475Z,5.15
2019-05-21T11:54:30.995Z,5.12
2019-05-21T11:57:01.276Z,5.70
2019-05-21T11:59:31.559Z,5.33
2019-05-21T12:02:01.834Z,5.85
2019-05-21T12:04:32.115Z,5.58
2019-05-21T12:07:03.667Z,5.10
2019-05-21T12:09:34.053Z,6.03
2019-05-21T12:12:04.473Z,4.83
2019-05-21T12:14:35.655Z,5.70
2019-05-21T12:17:05.937Z,5.50
2019-05-21T12:19:36.235Z,6.07
2019-05-21T12:22:06.521Z,6.50
2019-05-21T12:24:36.847Z,6.80
2019-05-21T12:27:07.195Z,6.80
2019-05-21T12:29:38.038Z,6.67
2019-05-21T12:32:08.314Z,6.78
2019-05-21T12:34:39.096Z,7.07
2019-05-21T12:37:09.548Z,6.65
2019-05-21T12:39:39.836Z,7.53
2019-05-21T12:42:10.529Z,6.65
2019-05-21T12:44:41.165Z,7.33
2019-05-21T12:47:11.396Z,6.90
2019-05-21T12:49:41.673Z,6.60
2019-05-21T12:52:11.950Z,7.05
2019-05-21T12:54:42.227Z,6.30
2019-05-21T12:57:13.151Z,6.65
2019-05-21T12:59:44.553Z,6.47
2019-05-21T13:02:14.908Z,5.85
2019-05-21T13:04:45.359Z,5.87
2019-05-21T13:07:15.695Z,6.42
2019-05-21T13:09:45.937Z,6.97
2019-05-21T13:12:16.219Z,7.55
2019-05-21T13:14:46.546Z,7.45
2019-05-21T13:17:16.898Z,6.62
2019-05-21T13:19:47.188Z,6.70
2019-05-21T13:22:17.595Z,5.60
2019-05-21T13:24:47.938Z,6.12
2019-05-21T13:27:18.215Z,5.75
2019-05-21T13:29:48.529Z,6.55
2019-05-21T13:32:19.062Z,5.93
2019-05-21T13:34:49.379Z,6.50
2019-05-21T13:37:19.709Z,5.65
2019-05-21T13:39:50.737Z,6.40
2019-05-21T13:42:21.513Z,6.17
2019-05-21T13:44:51.809Z,4.83
2019-05-21T13:47:22.098Z,6.72
2019-05-21T13:49:52.380Z,6.40
2019-05-21T13:52:22.991Z,6.20
2019-05-21T13:54:53.472Z,6.57
2019-05-21T13:57:23.757Z,5.80
2019-05-21T13:59:54.369Z,5.55
2019-05-21T14:02:24.661Z,5.65
2019-05-21T14:04:55.049Z,4.58
2019-05-21T14:07:28.348Z,4.87
2019-05-21T14:10:14.346Z,4.62
2019-05-21T14:12:34.452Z,3.65
2019-05-21T14:17:55.765Z,3.60
2019-05-21T14:20:26.127Z,3.60
2019-05-21T14:22:57.142Z,4.12
2019-05-21T14:25:27.492Z,3.92
2019-05-21T14:27:57.793Z,4.30
2019-05-21T14:30:28.191Z,4.00
2019-05-21T14:32:58.513Z,4.37
2019-05-21T14:35:28.790Z,4.80
2019-05-21T14:37:59.134Z,4.50
2019-05-21T14:40:32.604Z,5.37
2019-05-21T14:43:02.515Z,4.72
2019-05-21T14:45:34.488Z,5.42
2019-05-21T14:48:05.040Z,5.33
2019-05-21T14:50:35.360Z,5.62
2019-05-21T14:53:05.666Z,6.78
2019-05-21T14:55:35.934Z,5.83
2019-05-21T14:58:06.205Z,5.85
2019-05-21T15:00:37.942Z,5.87
2019-05-21T15:03:23.871Z,5.20
2019-05-21T15:05:40.188Z,6.10
2019-05-21T15:08:10.474Z,5.40
2019-05-21T15:10:48.365Z,5.53
2019-05-21T15:13:12.807Z,5.37
2019-05-21T15:15:43.327Z,5.60
2019-05-21T15:18:20.919Z,5.58
2019-05-21T15:20:50.067Z,6.17
2019-05-21T15:23:20.336Z,5.70
2019-05-21T15:25:52.648Z,7.05
2019-05-21T15:28:23.082Z,7.08
2019-05-21T15:30:53.348Z,7.87
2019-05-21T15:33:23.656Z,7.03
2019-05-21T15:35:53.952Z,7.80
2019-05-21T15:38:24.226Z,7.95
2019-05-21T15:41:09.451Z,8.48
2019-05-21T15:43:26.515Z,7.62
2019-05-21T15:45:56.872Z,8.57
2019-05-21T15:48:27.290Z,7.92
2019-05-21T15:50:57.527Z,8.98
2019-05-21T15:53:27.803Z,7.92
2019-05-21T15:55:58.144Z,8.43
2019-05-21T15:58:28.392Z,8.73
2019-05-21T16:00:58.704Z,7.85
2019-05-21T16:03:28.960Z,8.32
2019-05-21T16:05:59.330Z,8.05
2019-05-21T16:08:29.961Z,8.85
2019-05-21T16:11:00.256Z,8.83
2019-05-21T16:13:30.562Z,8.57
2019-05-21T16:16:00.827Z,8.60
2019-05-21T16:18:31.121Z,9.08
2019-05-21T16:21:01.411Z,9.75
2019-05-21T16:23:32.025Z,8.93
2019-05-21T16:26:02.333Z,9.73
2019-05-21T16:28:32.621Z,9.30
2019-05-21T16:31:02.905Z,9.88
2019-05-21T16:33:33.204Z,10.60
2019-05-21T16:36:03.514Z,10.18
2019-05-21T16:38:33.867Z,10.50
2019-05-21T16:41:05.488Z,10.05
2019-05-21T16:43:36.060Z,10.82
2019-05-21T16:46:06.483Z,11.80
2019-05-21T16:48:36.779Z,11.30
2019-05-21T16:51:07.148Z,11.55
2019-05-21T16:53:37.679Z,11.68
2019-05-21T16:56:08.671Z,10.98
2019-05-21T16:58:38.922Z,11.48
2019-05-21T17:01:09.552Z,11.80
2019-05-21T17:03:39.911Z,12.37
2019-05-21T17:06:10.272Z,11.43
2019-05-21T17:08:40.589Z,11.15
2019-05-21T17:11:10.880Z,10.98
2019-05-21T17:13:41.175Z,12.00
2019-05-21T17:16:11.556Z,12.13
2019-05-21T17:18:42.136Z,12.85
2019-05-21T17:21:12.498Z,12.07
2019-05-21T17:23:42.820Z,12.23
2019-05-21T17:26:13.149Z,12.23
2019-05-21T17:28:43.502Z,13.02
2019-05-21T17:31:13.858Z,12.43
2019-05-21T17:33:44.219Z,12.60
2019-05-21T17:36:14.509Z,11.80
2019-05-21T17:38:45.451Z,12.88
2019-05-21T17:41:15.751Z,12.68
2019-05-21T17:43:46.041Z,12.30
2019-05-21T17:46:16.838Z,12.18
2019-05-21T17:48:47.361Z,11.15
2019-05-21T17:51:17.654Z,12.35
2019-05-21T17:53:47.965Z,11.75
2019-05-21T17:56:18.266Z,11.38
2019-05-21T17:58:49.513Z,11.40
2019-05-21T18:01:21.359Z,11.30
2019-05-21T18:03:51.642Z,11.70
2019-05-21T18:06:22.006Z,12.05
2019-05-21T18:08:52.288Z,12.68
2019-05-21T18:11:22.818Z,11.88
2019-05-21T18:13:53.172Z,10.98
2019-05-21T18:16:23.935Z,12.47
2019-05-21T18:18:54.285Z,11.10
2019-05-21T18:21:25.375Z,11.43
2019-05-21T18:23:55.735Z,10.80
2019-05-21T18:26:26.026Z,11.45
2019-05-21T18:28:56.381Z,12.45
2019-05-21T18:31:27.178Z,12.10
2019-05-21T18:33:57.526Z,11.87
2019-05-21T18:36:27.855Z,12.45
2019-05-21T18:38:58.156Z,12.18
2019-05-21T18:41:28.470Z,12.93
2019-05-21T18:43:58.748Z,12.80
2019-05-21T18:46:29.034Z,12.70
2019-05-21T18:48:59.321Z,13.72
2019-05-21T18:51:29.656Z,14.60
2019-05-21T18:53:59.949Z,13.50
2019-05-21T18:56:30.244Z,13.74
2019-05-21T18:59:00.762Z,13.32
2019-05-21T19:01:31.364Z,13.95
2019-05-21T19:04:02.317Z,14.45
2019-05-21T19:06:32.636Z,14.33
2019-05-21T19:09:02.933Z,16.62
2019-05-21T19:11:33.328Z,15.88
2019-05-21T19:14:03.915Z,16.52
2019-05-21T19:16:34.233Z,14.80
2019-05-21T19:19:04.771Z,14.68
2019-05-21T19:21:35.064Z,15.47
2019-05-21T19:24:05.498Z,16.27
2019-05-21T19:26:35.782Z,16.37
2019-05-21T19:29:07.954Z,15.28
2019-05-21T19:31:38.310Z,15.78
2019-05-21T19:34:08.596Z,16.83
2019-05-21T19:36:38.891Z,17.17
2019-05-21T19:39:09.190Z,18.33
2019-05-21T19:41:39.550Z,17.82
2019-05-21T19:44:10.186Z,18.05
2019-05-21T19:46:40.612Z,18.52
2019-05-21T19:49:12.142Z,18.20
2019-05-21T19:51:43.656Z,16.25
2019-05-21T19:54:13.873Z,17.77
2019-05-21T19:56:44.355Z,17.92
2019-05-21T19:59:14.652Z,17.37
2019-05-21T20:01:45.312Z,17.50
2019-05-21T20:04:16.032Z,16.67
2019-05-21T20:06:46.335Z,17.95
2019-05-21T20:09:17.448Z,17.43
2019-05-21T20:11:47.755Z,18.05
2019-05-21T20:14:18.363Z,17.10
2019-05-21T20:16:48.981Z,17.48
2019-05-21T20:19:21.750Z,17.95
2019-05-21T20:21:53.088Z,17.37
2019-05-21T20:24:24.152Z,17.85
2019-05-21T20:26:54.559Z,18.37
2019-05-21T20:29:24.919Z,17.17
2019-05-21T20:31:55.210Z,17.93
2019-05-21T20:34:25.862Z,16.94
2019-05-21T20:36:56.697Z,18.23
2019-05-21T20:39:28.883Z,16.93
2019-05-21T20:41:59.609Z,17.98
2019-05-21T20:44:30.165Z,16.97
2019-05-21T20:47:00.545Z,17.85
2019-05-21T20:49:30.908Z,15.13
2019-05-21T20:52:16.082Z,18.00
2019-05-21T20:54:34.872Z,17.07
2019-05-21T20:57:06.871Z,17.37
2019-05-21T20:59:37.331Z,16.20
2019-05-21T21:02:09.699Z,17.80
2019-05-21T21:04:40.430Z,19.10
2019-05-21T21:07:10.786Z,17.90
2019-05-21T21:09:41.466Z,20.50
2019-05-21T21:12:12.599Z,21.40
2019-05-21T21:14:44.346Z,18.48
2019-05-21T21:17:17.025Z,19.07
2019-05-21T21:19:47.811Z,15.20
2019-05-21T21:22:18.394Z,18.82
2019-05-21T21:24:49.476Z,21.10
2019-05-21T21:27:20.023Z,20.12
2019-05-21T21:29:50.310Z,18.67
2019-05-21T21:32:21.351Z,19.20
2019-05-21T21:34:51.699Z,19.75
2019-05-21T21:37:22.708Z,20.60
2019-05-21T21:39:53.083Z,20.22
2019-05-21T21:42:23.551Z,20.37
2019-05-21T21:44:54.301Z,22.20
2019-05-21T21:47:24.601Z,20.23
2019-05-21T21:49:56.053Z,20.32
2019-05-21T21:52:26.712Z,20.12
2019-05-21T21:54:57.089Z,20.90
2019-05-21T21:57:27.374Z,21.00
2019-05-21T21:59:58.010Z,22.05
2019-05-21T22:02:35.519Z,20.02
2019-05-21T22:05:09.301Z,20.10
2019-05-21T22:07:39.585Z,18.75
2019-05-21T22:10:09.964Z,19.30
2019-05-21T22:12:40.262Z,19.98
2019-05-21T22:15:11.427Z,19.17
2019-05-21T22:17:42.114Z,19.07
2019-05-21T22:20:14.280Z,16.87
2019-05-21T22:22:44.869Z,15.77
2019-05-21T22:25:15.709Z,18.30
2019-05-21T22:27:46.284Z,19.80
2019-05-21T22:30:17.777Z,19.25
2019-05-21T22:32:48.092Z,19.80
2019-05-21T22:35:18.447Z,17.87
2019-05-21T22:37:48.840Z,18.13
2019-05-21T22:40:19.115Z,18.30
2019-05-21T22:42:49.622Z,17.67
2019-05-21T22:45:20.070Z,19.37
2019-05-21T22:47:50.441Z,16.70
2019-05-21T22:50:20.797Z,18.10
2019-05-21T22:52:52.137Z,17.23
2019-05-21T22:55:23.546Z,20.20
2019-05-21T22:57:53.917Z,18.23
2019-05-21T23:00:24.967Z,18.27
2019-05-21T23:02:56.125Z,20.30
2019-05-21T23:05:26.409Z,16.65
2019-05-21T23:07:57.112Z,19.23
2019-05-21T23:10:27.572Z,17.92
2019-05-21T23:12:57.853Z,18.40
2019-05-21T23:15:28.969Z,20.80
2019-05-21T23:18:00.350Z,18.77
2019-05-21T23:20:33.337Z,19.10
2019-05-21T23:23:04.959Z,20.73
2019-05-21T23:25:36.518Z,19.20
2019-05-21T23:28:06.810Z,20.00
2019-05-21T23:30:37.755Z,21.17
2019-05-21T23:33:10.121Z,18.95
2019-05-21T23:35:41.163Z,17.55
2019-05-21T23:38:13.442Z,20.08
2019-05-21T23:40:44.393Z,17.90
2019-05-21T23:43:15.496Z,20.32
2019-05-21T23:45:45.916Z,19.60
2019-05-21T23:48:17.723Z,19.65
2019-05-21T23:50:48.508Z,20.12
2019-05-21T23:53:18.862Z,18.26
2019-05-21T23:55:49.227Z,19.65
2019-05-21T23:58:20.545Z,15.28
